createdAt,value
2017-03-18T00:00:18.535Z,958.95
2017-03-18T00:01:28.794Z,958.91
2017-03-18T00:02:38.737Z,958.88
2017-03-18T00:03:49.021Z,958.88
2017-03-18T00:04:59.278Z,958.91
2017-03-18T00:06:09.538Z,958.91
2017-03-18T00:07:19.796Z,958.89
2017-03-18T00:08:30.054Z,958.87
2017-03-18T00:09:40.310Z,958.89
2017-03-18T00:10:50.918Z,958.85
2017-03-18T00:12:01.166Z,958.86
2017-03-18T00:13:11.429Z,958.81
2017-03-18T00:14:21.695Z,958.8
2017-03-18T00:15:31.959Z,958.83
2017-03-18T00:16:41.584Z,958.81
2017-03-18T00:17:51.842Z,958.8
2017-03-18T00:19:02.101Z,958.75
2017-03-18T00:20:12.049Z,958.77
2017-03-18T00:21:22.297Z,958.74
2017-03-18T00:22:32.234Z,958.77
2017-03-18T00:23:42.496Z,958.76
2017-03-18T00:24:52.754Z,958.74
2017-03-18T00:26:03.011Z,958.72
2017-03-18T00:27:12.949Z,958.78
2017-03-18T00:28:22.889Z,958.79
2017-03-18T00:29:33.154Z,958.8
2017-03-18T00:30:43.100Z,958.79
2017-03-18T00:31:53.035Z,958.77
2017-03-18T00:33:03.289Z,958.79
2017-03-18T00:34:13.558Z,958.79
2017-03-18T00:35:23.813Z,958.8
2017-03-18T00:36:34.080Z,958.84
2017-03-18T00:37:44.023Z,958.8
2017-03-18T00:38:53.969Z,958.78
2017-03-18T00:40:04.335Z,958.78
2017-03-18T00:41:14.594Z,958.78
2017-03-18T00:42:24.849Z,958.81
2017-03-18T00:43:35.102Z,958.77
2017-03-18T00:44:45.361Z,958.81
2017-03-18T00:45:55.617Z,958.84
2017-03-18T00:47:05.550Z,958.89
2017-03-18T00:48:15.496Z,958.85
2017-03-18T00:49:25.122Z,958.86
2017-03-18T00:50:35.383Z,958.84
2017-03-18T00:51:45.643Z,958.85
2017-03-18T00:52:55.895Z,958.87
2017-03-18T00:54:06.157Z,958.87
2017-03-18T00:55:16.108Z,958.78
2017-03-18T00:56:26.079Z,958.83
2017-03-18T00:57:36.049Z,958.85
2017-03-18T00:58:45.997Z,958.86
2017-03-18T00:59:56.257Z,958.84
2017-03-18T01:01:06.217Z,958.86
2017-03-18T01:02:16.154Z,958.83
2017-03-18T01:03:26.423Z,958.82
2017-03-18T01:04:36.373Z,958.86
2017-03-18T01:05:46.312Z,958.79
2017-03-18T01:06:56.601Z,958.8
2017-03-18T01:08:06.852Z,958.84
2017-03-18T01:09:16.481Z,958.83
2017-03-18T01:10:26.740Z,958.83
2017-03-18T01:11:36.687Z,958.9
2017-03-18T01:12:46.627Z,958.85
2017-03-18T01:13:56.568Z,958.79
2017-03-18T01:15:06.826Z,958.81
2017-03-18T01:16:16.770Z,958.85
2017-03-18T01:17:27.025Z,958.81
2017-03-18T01:18:37.316Z,958.81
2017-03-18T01:19:47.263Z,958.8
2017-03-18T01:20:57.532Z,958.79
2017-03-18T01:22:07.796Z,958.84
2017-03-18T01:23:18.065Z,958.82
2017-03-18T01:24:28.332Z,958.84
2017-03-18T01:25:38.591Z,958.77
2017-03-18T01:26:48.844Z,958.79
2017-03-18T01:27:59.103Z,958.8
2017-03-18T01:29:09.354Z,958.81
2017-03-18T01:30:19.301Z,958.8
2017-03-18T01:31:29.553Z,958.8
2017-03-18T01:32:39.180Z,958.87
2017-03-18T01:33:49.443Z,958.81
2017-03-18T01:34:59.744Z,958.84
2017-03-18T01:36:10.025Z,958.82
2017-03-18T01:37:20.283Z,958.86
2017-03-18T01:38:30.220Z,958.84
2017-03-18T01:39:40.168Z,958.86
2017-03-18T01:40:50.426Z,958.85
2017-03-18T01:42:00.373Z,958.85
2017-03-18T01:43:09.994Z,958.82
2017-03-18T01:44:20.253Z,958.8
2017-03-18T01:45:30.516Z,958.79
2017-03-18T01:46:40.770Z,958.79
2017-03-18T01:47:51.026Z,958.79
2017-03-18T01:49:01.284Z,958.77
2017-03-18T01:50:11.250Z,958.75
2017-03-18T01:51:21.519Z,958.74
2017-03-18T01:52:31.777Z,958.71
2017-03-18T01:53:42.038Z,958.67
2017-03-18T01:54:51.986Z,958.68
2017-03-18T01:56:02.257Z,958.69
2017-03-18T01:57:12.196Z,958.68
2017-03-18T01:58:22.455Z,958.65
2017-03-18T01:59:32.721Z,958.66
2017-03-18T02:00:42.975Z,958.7
2017-03-18T02:01:53.229Z,958.69
2017-03-18T02:03:03.490Z,958.72
2017-03-18T02:04:13.753Z,958.69
2017-03-18T02:05:24.023Z,958.71
2017-03-18T02:06:33.963Z,958.72
2017-03-18T02:07:43.903Z,958.71
2017-03-18T02:08:53.851Z,958.71
2017-03-18T02:10:04.110Z,958.77
2017-03-18T02:11:14.051Z,958.75
2017-03-18T02:12:24.307Z,958.73
2017-03-18T02:13:34.558Z,958.74
2017-03-18T02:14:44.819Z,958.74
2017-03-18T02:15:55.080Z,958.73
2017-03-18T02:17:05.350Z,958.71
2017-03-18T02:18:15.602Z,958.72
2017-03-18T02:19:25.550Z,958.72
2017-03-18T02:20:35.176Z,958.74
2017-03-18T02:21:45.427Z,958.73
2017-03-18T02:22:55.681Z,958.76
2017-03-18T02:24:05.947Z,958.76
2017-03-18T02:25:16.207Z,958.76
2017-03-18T02:26:26.153Z,958.75
2017-03-18T02:27:36.408Z,958.76
2017-03-18T02:28:46.376Z,958.82
2017-03-18T02:29:56.637Z,958.79
2017-03-18T02:31:06.587Z,958.78
2017-03-18T02:32:16.840Z,958.77
2017-03-18T02:33:27.090Z,958.81
2017-03-18T02:34:37.347Z,958.8
2017-03-18T02:35:47.597Z,958.79
2017-03-18T02:36:58.098Z,958.83
2017-03-18T02:38:08.045Z,958.82
2017-03-18T02:39:17.362Z,958.82
2017-03-18T02:40:27.661Z,958.83
2017-03-18T02:41:37.928Z,958.83
2017-03-18T02:42:48.183Z,958.79
2017-03-18T02:43:58.453Z,958.81
2017-03-18T02:45:08.706Z,958.8
2017-03-18T02:46:18.956Z,958.77
2017-03-18T02:47:28.940Z,958.77
2017-03-18T02:48:38.884Z,958.79
2017-03-18T02:49:49.166Z,958.77
2017-03-18T02:50:59.429Z,958.81
2017-03-18T02:52:09.683Z,958.81
2017-03-18T02:53:19.320Z,958.85
2017-03-18T02:54:29.261Z,958.84
2017-03-18T02:55:39.518Z,958.79
2017-03-18T02:56:49.775Z,958.83
2017-03-18T02:58:00.028Z,958.81
2017-03-18T02:59:10.297Z,958.81
2017-03-18T03:00:21.942Z,958.79
2017-03-18T03:01:32.201Z,958.81
2017-03-18T03:02:42.461Z,958.84
2017-03-18T03:03:52.729Z,958.85
2017-03-18T03:05:02.982Z,958.8
2017-03-18T03:06:12.952Z,958.81
2017-03-18T03:07:23.214Z,958.84
2017-03-18T03:08:33.478Z,958.85
2017-03-18T03:09:43.746Z,958.86
2017-03-18T03:10:54.010Z,958.89
2017-03-18T03:12:04.265Z,958.9
2017-03-18T03:13:14.203Z,958.93
2017-03-18T03:14:24.491Z,958.92
2017-03-18T03:15:34.434Z,958.92
2017-03-18T03:16:44.690Z,958.91
2017-03-18T03:17:54.978Z,958.92
2017-03-18T03:19:05.232Z,958.94
2017-03-18T03:20:15.496Z,958.88
2017-03-18T03:21:25.748Z,958.9
2017-03-18T03:22:36.014Z,958.89
2017-03-18T03:23:46.283Z,958.88
2017-03-18T03:24:56.546Z,958.82
2017-03-18T03:26:06.811Z,958.84
2017-03-18T03:27:16.435Z,958.82
2017-03-18T03:28:26.686Z,958.84
2017-03-18T03:29:36.954Z,958.86
2017-03-18T03:30:47.210Z,958.88
2017-03-18T03:31:57.148Z,958.81
2017-03-18T03:33:07.405Z,958.82
2017-03-18T03:34:17.353Z,958.86
2017-03-18T03:35:27.619Z,958.86
2017-03-18T03:36:37.900Z,958.86
2017-03-18T03:37:48.160Z,958.86
2017-03-18T03:38:58.109Z,958.83
2017-03-18T03:40:08.365Z,958.83
2017-03-18T03:41:17.993Z,958.84
2017-03-18T03:42:28.244Z,958.87
2017-03-18T03:43:38.505Z,958.88
2017-03-18T03:44:48.799Z,958.86
2017-03-18T03:45:59.060Z,958.85
2017-03-18T03:47:09.004Z,958.92
2017-03-18T03:48:19.264Z,958.9
2017-03-18T03:49:29.519Z,958.92
2017-03-18T03:50:39.806Z,958.92
2017-03-18T03:51:50.064Z,958.97
2017-03-18T03:53:00.317Z,958.94
2017-03-18T03:54:10.575Z,958.95
2017-03-18T03:55:20.839Z,958.96
2017-03-18T03:56:30.778Z,958.94
2017-03-18T03:57:40.405Z,958.93
2017-03-18T03:58:50.666Z,958.91
2017-03-18T04:00:00.925Z,958.92
2017-03-18T04:01:10.555Z,958.94
2017-03-18T04:02:20.504Z,958.98
2017-03-18T04:03:30.447Z,958.95
2017-03-18T04:04:40.711Z,958.94
2017-03-18T04:05:50.964Z,958.95
2017-03-18T04:07:01.237Z,958.97
2017-03-18T04:08:11.490Z,958.96
2017-03-18T04:09:21.434Z,958.98
2017-03-18T04:10:31.376Z,958.98
2017-03-18T04:11:41.632Z,958.98
2017-03-18T04:12:51.576Z,959.01
2017-03-18T04:14:01.855Z,959
2017-03-18T04:15:12.120Z,959.09
2017-03-18T04:16:22.090Z,959.07
2017-03-18T04:17:32.347Z,959.07
2017-03-18T04:18:42.610Z,959.1
2017-03-18T04:19:52.885Z,959.15
2017-03-18T04:21:03.147Z,959.15
2017-03-18T04:22:13.398Z,959.21
2017-03-18T04:23:23.338Z,959.17
2017-03-18T04:24:33.607Z,959.23
2017-03-18T04:25:43.871Z,959.22
2017-03-18T04:26:53.821Z,959.23
2017-03-18T04:28:03.765Z,959.25
2017-03-18T04:29:13.708Z,959.28
2017-03-18T04:30:23.658Z,959.21
2017-03-18T04:31:33.601Z,959.24
2017-03-18T04:32:43.866Z,959.25
2017-03-18T04:33:54.125Z,959.25
2017-03-18T04:35:04.378Z,959.27
2017-03-18T04:36:14.632Z,959.28
2017-03-18T04:37:24.883Z,959.34
2017-03-18T04:38:34.828Z,959.3
2017-03-18T04:39:45.092Z,959.36
2017-03-18T04:40:55.350Z,959.34
2017-03-18T04:42:05.605Z,959.33
2017-03-18T04:43:15.550Z,959.35
2017-03-18T04:44:25.814Z,959.36
2017-03-18T04:45:35.789Z,959.37
2017-03-18T04:46:46.043Z,959.38
2017-03-18T04:47:55.981Z,959.43
2017-03-18T04:49:06.237Z,959.39
2017-03-18T04:50:16.191Z,959.41
2017-03-18T04:51:25.818Z,959.38
2017-03-18T04:52:36.068Z,959.41
2017-03-18T04:53:46.332Z,959.45
2017-03-18T04:54:56.317Z,959.45
2017-03-18T04:56:06.573Z,959.45
2017-03-18T04:57:16.511Z,959.42
2017-03-18T04:58:26.453Z,959.48
2017-03-18T04:59:36.716Z,959.47
2017-03-18T05:00:46.972Z,959.48
2017-03-18T05:01:56.913Z,959.51
2017-03-18T05:03:07.171Z,959.49
2017-03-18T05:04:17.433Z,959.5
2017-03-18T05:05:27.377Z,959.52
2017-03-18T05:06:37.631Z,959.61
2017-03-18T05:07:47.888Z,959.66
2017-03-18T05:08:58.148Z,959.64
2017-03-18T05:10:08.412Z,959.64
2017-03-18T05:11:18.666Z,959.64
2017-03-18T05:12:28.606Z,959.65
2017-03-18T05:13:38.867Z,959.67
2017-03-18T05:14:49.130Z,959.67
2017-03-18T05:15:59.399Z,959.65
2017-03-18T05:17:09.337Z,959.64
2017-03-18T05:18:19.587Z,959.64
2017-03-18T05:19:29.540Z,959.65
2017-03-18T05:20:39.799Z,959.64
2017-03-18T05:21:50.051Z,959.67
2017-03-18T05:23:00.308Z,959.66
2017-03-18T05:24:10.258Z,959.68
2017-03-18T05:25:20.512Z,959.7
2017-03-18T05:26:30.770Z,959.59
2017-03-18T05:27:41.029Z,959.71
2017-03-18T05:28:51.324Z,959.7
2017-03-18T05:30:01.586Z,959.72
2017-03-18T05:31:11.839Z,959.76
2017-03-18T05:32:21.464Z,959.73
2017-03-18T05:33:31.411Z,959.76
2017-03-18T05:34:41.676Z,959.79
2017-03-18T05:35:51.931Z,959.8
2017-03-18T05:37:02.195Z,959.82
2017-03-18T05:38:12.454Z,959.81
2017-03-18T05:39:22.714Z,959.84
2017-03-18T05:40:32.974Z,959.82
2017-03-18T05:41:43.232Z,959.86
2017-03-18T05:42:53.490Z,959.88
2017-03-18T05:44:03.754Z,959.88
2017-03-18T05:45:13.700Z,959.9
2017-03-18T05:46:23.975Z,959.93
2017-03-18T05:47:33.916Z,959.95
2017-03-18T05:48:44.225Z,959.99
2017-03-18T05:49:54.485Z,959.97
2017-03-18T05:51:04.796Z,959.99
2017-03-18T05:52:14.736Z,960.04
2017-03-18T05:53:24.045Z,960.04
2017-03-18T05:54:34.308Z,960.06
2017-03-18T05:55:44.293Z,960.04
2017-03-18T05:56:54.550Z,960.05
2017-03-18T05:58:04.820Z,960.08
2017-03-18T05:59:14.774Z,960.08
2017-03-18T06:00:24.407Z,960.11
2017-03-18T06:01:34.373Z,960.13
2017-03-18T06:02:44.629Z,960.14
2017-03-18T06:03:54.578Z,960.08
2017-03-18T06:05:04.836Z,960.14
2017-03-18T06:06:15.091Z,960.16
2017-03-18T06:07:25.347Z,960.17
2017-03-18T06:08:35.292Z,960.15
2017-03-18T06:09:45.560Z,960.17
2017-03-18T06:10:55.818Z,960.19
2017-03-18T06:12:06.068Z,960.22
2017-03-18T06:13:16.324Z,960.26
2017-03-18T06:14:26.598Z,960.27
2017-03-18T06:15:36.538Z,960.34
2017-03-18T06:16:46.795Z,960.34
2017-03-18T06:17:57.058Z,960.38
2017-03-18T06:19:07.009Z,960.33
2017-03-18T06:20:17.274Z,960.37
2017-03-18T06:21:27.545Z,960.38
2017-03-18T06:22:37.176Z,960.42
2017-03-18T06:23:47.434Z,960.44
2017-03-18T06:24:57.409Z,960.44
2017-03-18T06:26:07.358Z,960.46
2017-03-18T06:27:17.292Z,960.47
2017-03-18T06:28:27.232Z,960.5
2017-03-18T06:29:37.180Z,960.48
2017-03-18T06:30:47.439Z,960.5
2017-03-18T06:31:57.692Z,960.55
2017-03-18T06:33:07.630Z,960.56
2017-03-18T06:34:17.922Z,960.57
2017-03-18T06:35:27.866Z,960.62
2017-03-18T06:36:37.808Z,960.62
2017-03-18T06:37:48.066Z,960.63
2017-03-18T06:38:58.012Z,960.65
2017-03-18T06:40:08.271Z,960.7
2017-03-18T06:41:18.525Z,960.71
2017-03-18T06:42:28.473Z,960.73
2017-03-18T06:43:38.737Z,960.75
2017-03-18T06:44:49.004Z,960.76
2017-03-18T06:45:59.268Z,960.77
2017-03-18T06:47:09.518Z,960.8
2017-03-18T06:48:19.773Z,960.84
2017-03-18T06:49:29.719Z,960.86
2017-03-18T06:50:39.974Z,960.86
2017-03-18T06:51:49.911Z,960.8
2017-03-18T06:52:59.869Z,960.82
2017-03-18T06:54:10.136Z,960.81
2017-03-18T06:55:20.400Z,960.86
2017-03-18T06:56:30.651Z,960.89
2017-03-18T06:57:40.592Z,960.89
2017-03-18T06:58:50.225Z,960.9
2017-03-18T07:00:00.502Z,960.91
2017-03-18T07:01:10.446Z,960.89
2017-03-18T07:02:20.385Z,960.92
2017-03-18T07:03:30.335Z,960.92
2017-03-18T07:04:40.587Z,960.91
2017-03-18T07:05:50.843Z,960.94
2017-03-18T07:07:01.105Z,960.96
2017-03-18T07:08:11.358Z,960.95
2017-03-18T07:09:21.302Z,960.99
2017-03-18T07:10:31.562Z,960.97
2017-03-18T07:11:41.823Z,961
2017-03-18T07:12:52.090Z,961.03
2017-03-18T07:14:02.386Z,960.99
2017-03-18T07:15:12.330Z,960.97
2017-03-18T07:16:22.272Z,960.96
2017-03-18T07:17:31.900Z,961
2017-03-18T07:18:42.154Z,960.99
2017-03-18T07:19:52.406Z,960.95
2017-03-18T07:21:02.672Z,960.99
2017-03-18T07:22:12.927Z,961.01
2017-03-18T07:23:25.289Z,961
2017-03-18T07:24:35.237Z,960.96
2017-03-18T07:25:45.491Z,961
2017-03-18T07:26:55.436Z,960.96
2017-03-18T07:28:05.694Z,960.98
2017-03-18T07:29:15.960Z,961
2017-03-18T07:30:26.258Z,961
2017-03-18T07:31:36.518Z,961.02
2017-03-18T07:32:46.462Z,961.03
2017-03-18T07:33:56.720Z,961.03
2017-03-18T07:35:06.980Z,961.07
2017-03-18T07:36:17.235Z,961.03
2017-03-18T07:37:27.489Z,961.04
2017-03-18T07:38:37.128Z,961.06
2017-03-18T07:39:47.382Z,961.06
2017-03-18T07:40:57.649Z,961.07
2017-03-18T07:42:07.902Z,961.09
2017-03-18T07:43:18.153Z,961.08
2017-03-18T07:44:28.415Z,961.14
2017-03-18T07:45:38.363Z,961.13
2017-03-18T07:46:48.623Z,961.22
2017-03-18T07:47:58.878Z,961.16
2017-03-18T07:49:09.139Z,961.18
2017-03-18T07:50:19.400Z,961.19
2017-03-18T07:51:29.348Z,961.18
2017-03-18T07:52:39.600Z,961.2
2017-03-18T07:53:49.545Z,961.16
2017-03-18T07:54:59.500Z,961.18
2017-03-18T07:56:09.765Z,961.13
2017-03-18T07:57:20.032Z,961.19
2017-03-18T07:58:30.295Z,961.16
2017-03-18T07:59:40.567Z,961.16
2017-03-18T08:00:50.824Z,961.19
2017-03-18T08:02:01.081Z,961.16
2017-03-18T08:03:11.038Z,961.2
2017-03-18T08:04:20.993Z,961.18
2017-03-18T08:05:30.934Z,961.22
2017-03-18T08:06:40.884Z,961.19
2017-03-18T08:07:51.145Z,961.25
2017-03-18T08:09:01.414Z,961.23
2017-03-18T08:10:11.369Z,961.29
2017-03-18T08:11:21.322Z,961.29
2017-03-18T08:12:31.579Z,961.3
2017-03-18T08:13:41.526Z,961.32
2017-03-18T08:14:51.791Z,961.35
2017-03-18T08:16:02.055Z,961.35
2017-03-18T08:17:12.316Z,961.37
2017-03-18T08:18:22.257Z,961.39
2017-03-18T08:19:32.210Z,961.39
2017-03-18T08:20:42.159Z,961.37
2017-03-18T08:21:52.425Z,961.38
2017-03-18T08:23:02.377Z,961.37
2017-03-18T08:24:12.332Z,961.35
2017-03-18T08:25:22.602Z,961.38
2017-03-18T08:26:32.235Z,961.39
2017-03-18T08:27:42.499Z,961.47
2017-03-18T08:28:52.764Z,961.45
2017-03-18T08:30:03.025Z,961.48
2017-03-18T08:31:12.963Z,961.47
2017-03-18T08:32:23.218Z,961.45
2017-03-18T08:33:33.486Z,961.48
2017-03-18T08:34:43.757Z,961.45
2017-03-18T08:35:53.704Z,961.48
2017-03-18T08:37:03.959Z,961.49
2017-03-18T08:38:13.899Z,961.45
2017-03-18T08:39:23.857Z,961.47
2017-03-18T08:40:33.841Z,961.49
2017-03-18T08:41:44.110Z,961.48
2017-03-18T08:42:54.054Z,961.44
2017-03-18T08:44:04.317Z,961.47
2017-03-18T08:45:14.272Z,961.43
2017-03-18T08:46:24.532Z,961.44
2017-03-18T08:47:34.788Z,961.48
2017-03-18T08:48:45.064Z,961.47
2017-03-18T08:49:55.333Z,961.54
2017-03-18T08:51:05.285Z,961.56
2017-03-18T08:52:15.549Z,961.6
2017-03-18T08:53:25.805Z,961.63
2017-03-18T08:54:36.065Z,961.61
2017-03-18T08:55:46.334Z,961.61
2017-03-18T08:56:56.589Z,961.56
2017-03-18T08:58:06.856Z,961.6
2017-03-18T08:59:17.119Z,961.61
2017-03-18T09:00:27.390Z,961.6
2017-03-18T09:01:37.644Z,961.61
2017-03-18T09:02:47.903Z,961.58
2017-03-18T09:03:58.172Z,961.58
2017-03-18T09:05:08.437Z,961.58
2017-03-18T09:06:18.694Z,961.62
2017-03-18T09:07:28.636Z,961.6
2017-03-18T09:08:38.590Z,961.62
2017-03-18T09:09:48.253Z,961.67
2017-03-18T09:10:58.202Z,961.64
2017-03-18T09:12:08.154Z,961.7
2017-03-18T09:13:18.101Z,961.73
2017-03-18T09:14:27.736Z,961.82
2017-03-18T09:15:38.032Z,961.73
2017-03-18T09:16:47.661Z,961.76
2017-03-18T09:17:57.917Z,961.76
2017-03-18T09:19:08.182Z,961.8
2017-03-18T09:20:18.169Z,961.78
2017-03-18T09:21:28.430Z,961.84
2017-03-18T09:22:38.682Z,961.9
2017-03-18T09:23:48.949Z,961.86
2017-03-18T09:24:59.219Z,961.9
2017-03-18T09:26:09.477Z,961.93
2017-03-18T09:27:19.419Z,961.88
2017-03-18T09:28:29.699Z,961.95
2017-03-18T09:29:39.650Z,961.91
2017-03-18T09:30:49.918Z,961.97
2017-03-18T09:31:59.867Z,962.02
2017-03-18T09:33:10.123Z,961.95
2017-03-18T09:34:20.391Z,961.96
2017-03-18T09:35:30.354Z,961.93
2017-03-18T09:36:40.606Z,961.92
2017-03-18T09:37:50.863Z,961.93
2017-03-18T09:39:00.803Z,961.94
2017-03-18T09:40:11.067Z,961.94
2017-03-18T09:41:21.329Z,961.99
2017-03-18T09:42:30.959Z,962.02
2017-03-18T09:43:40.915Z,961.97
2017-03-18T09:44:50.858Z,961.94
2017-03-18T09:46:01.121Z,962.02
2017-03-18T09:47:11.088Z,962.04
2017-03-18T09:48:21.029Z,962.03
2017-03-18T09:49:30.998Z,962.05
2017-03-18T09:50:41.264Z,962.04
2017-03-18T09:51:51.523Z,962.06
2017-03-18T09:53:01.775Z,962.01
2017-03-18T09:54:11.727Z,962.05
2017-03-18T09:55:21.992Z,962.05
2017-03-18T09:56:32.244Z,962.08
2017-03-18T09:57:42.499Z,962.11
2017-03-18T09:58:52.768Z,962.07
2017-03-18T10:00:02.425Z,962.13
2017-03-18T10:01:12.368Z,962.13
2017-03-18T10:02:22.620Z,962.12
2017-03-18T10:03:32.563Z,962.21
2017-03-18T10:04:42.821Z,962.15
2017-03-18T10:05:52.763Z,962.1
2017-03-18T10:07:03.031Z,962.13
2017-03-18T10:08:12.981Z,962.13
2017-03-18T10:09:23.233Z,962.11
2017-03-18T10:10:33.499Z,962.18
2017-03-18T10:11:43.755Z,962.22
2017-03-18T10:12:54.014Z,962.14
2017-03-18T10:14:04.281Z,962.2
2017-03-18T10:15:14.547Z,962.22
2017-03-18T10:16:24.811Z,962.18
2017-03-18T10:17:35.063Z,962.2
2017-03-18T10:18:45.329Z,962.21
2017-03-18T10:19:55.275Z,962.2
2017-03-18T10:21:05.545Z,962.18
2017-03-18T10:22:15.798Z,962.2
2017-03-18T10:23:25.116Z,962.19
2017-03-18T10:24:35.068Z,962.3
2017-03-18T10:25:45.342Z,962.25
2017-03-18T10:26:55.284Z,962.26
2017-03-18T10:28:05.579Z,962.31
2017-03-18T10:29:15.528Z,962.32
2017-03-18T10:30:25.794Z,962.35
2017-03-18T10:31:35.738Z,962.4
2017-03-18T10:32:45.681Z,962.4
2017-03-18T10:33:55.998Z,962.38
2017-03-18T10:35:06.266Z,962.42
2017-03-18T10:36:16.522Z,962.38
2017-03-18T10:37:26.774Z,962.43
2017-03-18T10:38:37.038Z,962.41
2017-03-18T10:39:46.986Z,962.44
2017-03-18T10:40:56.984Z,962.4
2017-03-18T10:42:07.243Z,962.39
2017-03-18T10:43:17.496Z,962.46
2017-03-18T10:44:27.138Z,962.44
2017-03-18T10:45:37.396Z,962.43
2017-03-18T10:46:47.655Z,962.47
2017-03-18T10:47:57.918Z,962.4
2017-03-18T10:49:08.178Z,962.46
2017-03-18T10:50:18.444Z,962.5
2017-03-18T10:51:28.704Z,962.47
2017-03-18T10:52:38.966Z,962.49
2017-03-18T10:53:49.231Z,962.47
2017-03-18T10:54:59.496Z,962.49
2017-03-18T10:56:09.798Z,962.53
2017-03-18T10:57:20.078Z,962.49
2017-03-18T10:58:30.344Z,962.53
2017-03-18T10:59:40.291Z,962.58
2017-03-18T11:00:50.559Z,962.54
2017-03-18T11:02:00.815Z,962.59
2017-03-18T11:03:10.759Z,962.62
2017-03-18T11:04:21.025Z,962.62
2017-03-18T11:05:30.971Z,962.64
2017-03-18T11:06:40.909Z,962.68
2017-03-18T11:07:50.542Z,962.76
2017-03-18T11:09:00.804Z,962.72
2017-03-18T11:10:10.754Z,962.73
2017-03-18T11:11:21.015Z,962.78
2017-03-18T11:12:31.271Z,962.83
2017-03-18T11:13:41.538Z,962.94
2017-03-18T11:14:51.802Z,963.1
2017-03-18T11:16:02.073Z,963.32
2017-03-18T11:17:12.334Z,963.36
2017-03-18T11:18:22.595Z,963.52
2017-03-18T11:19:32.549Z,963.21
2017-03-18T11:20:42.815Z,963.3
2017-03-18T11:21:53.077Z,963.33
2017-03-18T11:23:03.336Z,963.33
2017-03-18T11:24:13.611Z,963.56
2017-03-18T11:25:23.877Z,963.49
2017-03-18T11:26:33.829Z,963.63
2017-03-18T11:27:43.787Z,963.3
2017-03-18T11:28:54.055Z,963.21
2017-03-18T11:30:04.321Z,963.23
2017-03-18T11:31:14.268Z,963.21
2017-03-18T11:32:24.240Z,963.21
2017-03-18T11:33:34.506Z,963.18
2017-03-18T11:34:44.784Z,963.23
2017-03-18T11:35:54.733Z,963.32
2017-03-18T11:37:04.990Z,963.27
2017-03-18T11:38:15.294Z,963.34
2017-03-18T11:39:25.558Z,963.23
2017-03-18T11:40:35.819Z,963.14
2017-03-18T11:41:45.774Z,963.01
2017-03-18T11:42:56.036Z,963.01
2017-03-18T11:44:06.293Z,963.01
2017-03-18T11:45:16.244Z,963.61
2017-03-18T11:46:26.197Z,963.56
2017-03-18T11:47:36.142Z,963.56
2017-03-18T11:48:45.780Z,963.69
2017-03-18T11:49:56.048Z,963.61
2017-03-18T11:51:05.685Z,963.61
2017-03-18T11:52:15.636Z,963.71
2017-03-18T11:53:25.903Z,963.72
2017-03-18T11:54:36.168Z,963.72
2017-03-18T11:55:46.433Z,963.7
2017-03-18T11:56:56.387Z,963.66
2017-03-18T11:58:06.654Z,963.74
2017-03-18T11:59:16.926Z,963.73
2017-03-18T12:00:27.206Z,963.81
2017-03-18T12:01:37.491Z,963.69
2017-03-18T12:02:47.441Z,963.41
2017-03-18T12:03:57.401Z,963.63
2017-03-18T12:05:07.352Z,963.69
2017-03-18T12:06:17.326Z,963.86
2017-03-18T12:07:26.963Z,963.81
2017-03-18T12:08:36.959Z,963.99
2017-03-18T12:09:47.232Z,964.1
2017-03-18T12:10:57.509Z,964.21
2017-03-18T12:12:07.778Z,964.43
2017-03-18T12:13:17.737Z,964.77
2017-03-18T12:14:28.018Z,965.04
2017-03-18T12:15:40.291Z,965.35
2017-03-18T12:16:50.564Z,965.35
2017-03-18T12:18:00.520Z,965.24
2017-03-18T12:19:10.477Z,965.27
2017-03-18T12:20:20.801Z,965.41
2017-03-18T12:21:31.066Z,965.38
2017-03-18T12:22:41.348Z,965.5
2017-03-18T12:23:51.311Z,965.43
2017-03-18T12:25:01.266Z,965.31
2017-03-18T12:26:11.537Z,965.22
2017-03-18T12:27:21.804Z,965.06
2017-03-18T12:28:32.074Z,965
2017-03-18T12:29:41.726Z,964.89
2017-03-18T12:30:52.005Z,965.15
2017-03-18T12:32:01.644Z,965.14
2017-03-18T12:33:11.924Z,964.57
2017-03-18T12:34:22.201Z,965.03
2017-03-18T12:35:32.480Z,964.79
2017-03-18T12:36:42.754Z,964.62
2017-03-18T12:37:52.402Z,964.33
2017-03-18T12:39:02.365Z,964.56
2017-03-18T12:40:12.346Z,964.64
2017-03-18T12:41:22.611Z,964.66
2017-03-18T12:42:32.881Z,964.7
2017-03-18T12:43:42.844Z,964.61
2017-03-18T12:44:52.504Z,964.78
2017-03-18T12:46:02.779Z,964.8
2017-03-18T12:47:12.748Z,964.83
2017-03-18T12:48:23.054Z,964.77
2017-03-18T12:49:33.022Z,964.83
2017-03-18T12:50:42.671Z,963.76
2017-03-18T12:51:52.953Z,964.66
2017-03-18T12:53:03.219Z,964.98
2017-03-18T12:54:13.182Z,964.8
2017-03-18T12:55:22.831Z,964.67
2017-03-18T12:56:33.100Z,964.59
2017-03-18T12:57:43.373Z,964.39
2017-03-18T12:58:53.344Z,964.47
2017-03-18T13:00:03.622Z,964.38
2017-03-18T13:01:13.581Z,964.58
2017-03-18T13:02:23.852Z,964.51
2017-03-18T13:03:33.819Z,964.61
2017-03-18T13:04:44.093Z,964.83
2017-03-18T13:05:54.109Z,965
2017-03-18T13:07:03.749Z,965.24
2017-03-18T13:08:14.024Z,965.59
2017-03-18T13:09:24.314Z,965.36
2017-03-18T13:10:34.279Z,965.62
2017-03-18T13:11:44.243Z,965.71
2017-03-18T13:12:54.517Z,965.8
2017-03-18T13:14:04.489Z,965.57
2017-03-18T13:15:14.779Z,965.26
2017-03-18T13:16:25.085Z,965.42
2017-03-18T13:17:35.041Z,965.21
2017-03-18T13:18:45.007Z,965.42
2017-03-18T13:19:55.293Z,964.99
2017-03-18T13:21:05.254Z,964.72
2017-03-18T13:22:15.216Z,964.72
2017-03-18T13:23:25.490Z,964.86
2017-03-18T13:24:35.140Z,965.3
2017-03-18T13:25:45.455Z,965.28
2017-03-18T13:26:55.754Z,964.81
2017-03-18T13:28:05.714Z,964.78
2017-03-18T13:29:15.668Z,964.66
2017-03-18T13:30:25.958Z,964.72
2017-03-18T13:31:35.599Z,964.48
2017-03-18T13:32:45.574Z,964.49
2017-03-18T13:33:55.855Z,965.03
2017-03-18T13:35:05.816Z,965.14
2017-03-18T13:36:16.120Z,964.82
2017-03-18T13:37:26.387Z,964.9
2017-03-18T13:38:36.655Z,964.81
2017-03-18T13:39:46.937Z,964.61
2017-03-18T13:40:56.912Z,964.61
2017-03-18T13:42:07.180Z,964.67
2017-03-18T13:43:16.924Z,965.05
2017-03-18T13:44:27.201Z,965.14
2017-03-18T13:45:37.461Z,964.46
2017-03-18T13:46:47.723Z,964.69
2017-03-18T13:47:57.983Z,965.01
2017-03-18T13:50:21.785Z,964.88
2017-03-18T13:51:31.738Z,965.1
2017-03-18T13:52:42.003Z,965.08
2017-03-18T13:53:52.291Z,965.11
2017-03-18T13:55:02.242Z,964.6
2017-03-18T13:56:12.200Z,964.84
2017-03-18T13:57:22.148Z,964.91
2017-03-18T13:58:32.101Z,965.12
2017-03-18T13:59:42.378Z,965.45
2017-03-18T14:00:52.650Z,965.52
2017-03-18T14:02:02.603Z,965.32
2017-03-18T14:03:12.871Z,965.31
2017-03-18T14:04:23.141Z,964.94
2017-03-18T14:05:33.408Z,965.1
2017-03-18T14:06:43.358Z,965.06
2017-03-18T14:07:53.627Z,964.87
2017-03-18T14:09:03.619Z,965.15
2017-03-18T14:10:13.888Z,965.31
2017-03-18T14:11:24.175Z,965
2017-03-18T14:12:34.125Z,965.51
2017-03-18T14:13:44.400Z,965.53
2017-03-18T14:14:54.661Z,965.91
2017-03-18T14:16:04.620Z,966.09
2017-03-18T14:17:14.913Z,965.72
2017-03-18T14:18:25.475Z,965.45
2017-03-18T14:19:35.749Z,965.33
2017-03-18T14:20:46.025Z,965.71
2017-03-18T14:21:56.321Z,965.42
2017-03-18T14:23:05.959Z,965.26
2017-03-18T14:24:16.222Z,965.34
2017-03-18T14:25:26.494Z,965.93
2017-03-18T14:26:36.757Z,966.22
2017-03-18T14:27:47.015Z,966.16
2017-03-18T14:28:56.965Z,966.06
2017-03-18T14:30:06.920Z,966.25
2017-03-18T14:31:17.187Z,966.14
2017-03-18T14:32:27.472Z,965.72
2017-03-18T14:33:37.427Z,965.59
2017-03-18T14:34:47.704Z,965.53
2017-03-18T14:35:57.974Z,965.85
2017-03-18T14:37:07.924Z,966.32
2017-03-18T14:38:18.187Z,966.61
2017-03-18T14:39:28.175Z,966.63